createdAt,value
2018-09-19T00:00:32.743Z,23.95
2018-09-19T00:03:01.264Z,23.97
2018-09-19T00:05:29.950Z,23.96
2018-09-19T00:07:58.440Z,23.97
2018-09-19T00:10:26.949Z,23.98
2018-09-19T00:12:55.445Z,23.96
2018-09-19T00:15:23.919Z,23.98
2018-09-19T00:17:52.411Z,23.96
2018-09-19T00:20:20.971Z,23.96
2018-09-19T00:22:49.453Z,23.95
2018-09-19T00:25:17.938Z,23.95
2018-09-19T00:27:46.447Z,23.94
2018-09-19T00:30:15.009Z,23.93
2018-09-19T00:32:43.494Z,23.91
2018-09-19T00:35:12.004Z,23.90
2018-09-19T00:37:40.535Z,23.83
2018-09-19T00:40:09.648Z,23.78
2018-09-19T00:42:38.173Z,23.77
2018-09-19T00:45:06.668Z,23.75
2018-09-19T00:47:35.192Z,23.71
2018-09-19T00:50:03.761Z,23.68
2018-09-19T00:52:32.245Z,23.64
2018-09-19T00:55:00.691Z,23.60
2018-09-19T00:57:29.161Z,23.54
2018-09-19T00:59:57.675Z,23.49
2018-09-19T01:02:26.233Z,23.46
2018-09-19T01:04:54.750Z,23.42
2018-09-19T01:07:24.110Z,23.38
2018-09-19T01:09:52.628Z,23.34
2018-09-19T01:12:21.112Z,23.29
2018-09-19T01:14:49.681Z,23.22
2018-09-19T01:17:18.282Z,23.17
2018-09-19T01:19:46.861Z,23.13
2018-09-19T01:22:15.413Z,23.07
2018-09-19T01:24:43.857Z,23.05
2018-09-19T01:27:12.346Z,23.02
2018-09-19T01:29:40.878Z,22.98
2018-09-19T01:32:09.479Z,22.93
2018-09-19T01:34:37.956Z,22.88
2018-09-19T01:37:06.590Z,22.84
2018-09-19T01:39:35.176Z,22.78
2018-09-19T01:42:03.725Z,22.75
2018-09-19T01:44:32.454Z,22.72
2018-09-19T01:47:00.933Z,22.69
2018-09-19T01:49:29.441Z,22.65
2018-09-19T01:51:57.951Z,22.60
2018-09-19T01:54:26.448Z,22.57
2018-09-19T01:56:55.272Z,22.54
2018-09-19T01:59:23.858Z,22.48
2018-09-19T02:01:53.134Z,22.45
2018-09-19T02:04:21.657Z,22.40
2018-09-19T02:06:50.198Z,22.36
2018-09-19T02:09:18.705Z,22.33
2018-09-19T02:11:47.239Z,22.31
2018-09-19T02:14:15.737Z,22.29
2018-09-19T02:16:44.262Z,22.25
2018-09-19T02:19:12.798Z,22.25
2018-09-19T02:21:41.291Z,22.20
2018-09-19T02:24:09.741Z,22.19
2018-09-19T02:26:38.248Z,22.17
2018-09-19T02:29:06.729Z,22.15
2018-09-19T02:31:35.241Z,22.11
2018-09-19T02:34:03.767Z,22.09
2018-09-19T02:36:32.237Z,22.01
2018-09-19T02:39:00.740Z,21.97
2018-09-19T02:41:29.415Z,21.94
2018-09-19T02:43:57.951Z,21.87
2018-09-19T02:46:26.468Z,21.84
2018-09-19T02:48:54.952Z,21.76
2018-09-19T02:51:23.514Z,21.71
2018-09-19T02:53:52.025Z,21.67
2018-09-19T02:56:20.543Z,21.66
2018-09-19T02:58:48.973Z,21.68
2018-09-19T03:01:17.504Z,21.68
2018-09-19T03:03:46.073Z,21.68
2018-09-19T03:06:14.574Z,21.68
2018-09-19T03:08:43.099Z,21.68
2018-09-19T03:11:11.637Z,21.67
2018-09-19T03:13:40.143Z,21.65
2018-09-19T03:16:08.663Z,21.64
2018-09-19T03:18:37.151Z,21.63
2018-09-19T03:21:05.810Z,21.62
2018-09-19T03:23:34.272Z,21.59
2018-09-19T03:26:02.886Z,21.58
2018-09-19T03:28:31.403Z,21.55
2018-09-19T03:30:59.864Z,21.52
2018-09-19T03:33:28.420Z,21.53
2018-09-19T03:35:56.975Z,21.54
2018-09-19T03:38:25.434Z,21.56
2018-09-19T03:40:53.962Z,21.56
2018-09-19T03:43:22.660Z,21.58
2018-09-19T03:45:51.193Z,21.59
2018-09-19T03:48:19.737Z,21.58
2018-09-19T03:50:48.232Z,21.60
2018-09-19T03:53:16.748Z,21.63
2018-09-19T03:55:45.276Z,21.63
2018-09-19T03:58:13.848Z,21.64
2018-09-19T04:00:42.485Z,21.63
2018-09-19T04:03:11.150Z,21.63
2018-09-19T04:05:39.700Z,21.62
2018-09-19T04:08:08.470Z,21.61
2018-09-19T04:10:36.979Z,21.61
2018-09-19T04:13:05.522Z,21.61
2018-09-19T04:15:34.444Z,21.57
2018-09-19T04:18:02.967Z,21.56
2018-09-19T04:20:31.455Z,21.55
2018-09-19T04:23:00.124Z,21.55
2018-09-19T04:25:28.607Z,21.55
2018-09-19T04:27:57.229Z,21.50
2018-09-19T04:30:25.697Z,21.45
2018-09-19T04:32:54.326Z,21.41
2018-09-19T04:35:22.805Z,21.39
2018-09-19T04:37:51.386Z,21.38
2018-09-19T04:40:19.925Z,21.29
2018-09-19T04:42:48.447Z,21.34
2018-09-19T04:45:16.974Z,21.33
2018-09-19T04:47:45.417Z,21.33
2018-09-19T04:50:13.994Z,21.33
2018-09-19T04:52:42.475Z,21.29
2018-09-19T04:55:10.979Z,21.24
2018-09-19T04:57:42.689Z,20.43
2018-09-19T05:00:11.240Z,21.09
2018-09-19T05:02:41.590Z,21.04
2018-09-19T05:05:10.251Z,21.01
2018-09-19T05:07:39.377Z,21.01
2018-09-19T05:10:07.929Z,21.03
2018-09-19T05:12:36.565Z,21.04
2018-09-19T05:15:05.131Z,21.06
2018-09-19T05:17:35.497Z,21.07
2018-09-19T05:20:04.140Z,21.09
2018-09-19T05:22:32.823Z,21.12
2018-09-19T05:27:34.480Z,21.22
2018-09-19T05:30:03.296Z,21.27
2018-09-19T05:32:33.996Z,21.31
2018-09-19T05:35:02.771Z,21.30
2018-09-19T05:37:31.493Z,21.30
2018-09-19T05:40:02.297Z,21.28
2018-09-19T05:42:36.533Z,21.29
2018-09-19T05:45:05.470Z,21.30
2018-09-19T05:47:34.798Z,21.31
2018-09-19T05:50:03.439Z,21.33
2018-09-19T05:52:32.183Z,21.35
2018-09-19T05:55:00.960Z,21.38
2018-09-19T05:57:29.673Z,21.44
2018-09-19T05:59:58.434Z,21.44
2018-09-19T06:02:27.018Z,21.46
2018-09-19T06:04:55.924Z,21.48
2018-09-19T06:07:24.548Z,21.53
2018-09-19T06:09:53.273Z,21.64
2018-09-19T06:12:22.209Z,21.83
2018-09-19T06:14:51.085Z,22.11
2018-09-19T06:17:21.430Z,22.43
2018-09-19T06:19:50.904Z,22.77
2018-09-19T06:22:19.612Z,23.14
2018-09-19T06:24:48.538Z,23.53
2018-09-19T06:27:18.308Z,23.92
2018-09-19T06:29:47.300Z,24.31
2018-09-19T06:32:15.921Z,24.74
2018-09-19T06:34:44.615Z,25.15
2018-09-19T06:37:13.226Z,25.54
2018-09-19T06:39:41.922Z,25.94
2018-09-19T06:42:10.615Z,26.31
2018-09-19T06:44:39.514Z,26.72
2018-09-19T06:47:08.177Z,27.12
2018-09-19T06:49:36.966Z,27.58
2018-09-19T06:52:05.772Z,27.99
2018-09-19T06:54:34.409Z,28.45
2018-09-19T06:57:03.003Z,28.86
2018-09-19T06:59:31.744Z,29.25
2018-09-19T07:02:00.433Z,29.65
2018-09-19T07:04:28.996Z,30.07
2018-09-19T07:06:57.671Z,30.43
2018-09-19T07:09:26.360Z,30.68
2018-09-19T07:11:55.015Z,30.95
2018-09-19T07:14:23.650Z,31.17
2018-09-19T07:16:52.460Z,31.56
2018-09-19T07:19:21.206Z,31.91
2018-09-19T07:21:49.795Z,32.18
2018-09-19T07:24:18.426Z,32.34
2018-09-19T07:26:47.052Z,32.36
2018-09-19T07:29:15.732Z,32.44
2018-09-19T07:31:44.445Z,32.53
2018-09-19T07:34:13.037Z,32.34
2018-09-19T07:36:41.548Z,32.31
2018-09-19T07:39:11.680Z,32.34
2018-09-19T07:41:40.280Z,32.47
2018-09-19T07:44:09.755Z,32.62
2018-09-19T07:46:38.271Z,32.85
2018-09-19T07:49:06.756Z,33.17
2018-09-19T07:51:35.251Z,33.29
2018-09-19T07:54:03.773Z,33.57
2018-09-19T07:56:32.400Z,33.83
2018-09-19T07:59:00.894Z,34.19
2018-09-19T08:01:29.452Z,34.66
2018-09-19T08:03:57.947Z,34.47
2018-09-19T08:06:26.438Z,35.25
2018-09-19T08:08:54.975Z,35.38
2018-09-19T08:11:23.523Z,35.68
2018-09-19T08:13:52.139Z,35.90
2018-09-19T08:16:21.653Z,35.87
2018-09-19T08:18:50.441Z,35.84
2018-09-19T08:21:18.912Z,36.11
2018-09-19T08:23:48.323Z,36.22
2018-09-19T08:26:16.887Z,36.80
2018-09-19T08:28:45.440Z,37.33
2018-09-19T08:31:14.011Z,37.82
2018-09-19T08:33:42.536Z,38.29
2018-09-19T08:36:11.032Z,38.56
2018-09-19T08:38:39.576Z,39.01
2018-09-19T08:41:08.117Z,39.21
2018-09-19T08:43:36.608Z,39.48
2018-09-19T08:46:05.178Z,39.23
2018-09-19T08:48:33.700Z,38.75
2018-09-19T08:51:02.294Z,38.11
2018-09-19T08:53:30.802Z,37.63
2018-09-19T08:55:59.400Z,37.82
2018-09-19T08:58:27.932Z,38.45
2018-09-19T09:00:56.525Z,38.95
2018-09-19T09:03:24.993Z,39.24
2018-09-19T09:05:53.493Z,39.62
2018-09-19T09:08:21.964Z,40.12
2018-09-19T09:10:50.495Z,40.77
2018-09-19T09:13:19.055Z,41.40
2018-09-19T09:15:47.548Z,41.93
2018-09-19T09:18:16.085Z,41.96
2018-09-19T09:20:44.583Z,42.25
2018-09-19T09:23:13.067Z,42.78
2018-09-19T09:25:41.533Z,43.45
2018-09-19T09:28:10.418Z,43.74
2018-09-19T09:30:38.927Z,43.91
2018-09-19T09:33:07.725Z,44.35
2018-09-19T09:35:36.519Z,44.66
2018-09-19T09:38:04.960Z,44.81
2018-09-19T09:40:33.580Z,45.12
2018-09-19T09:43:02.004Z,45.25
2018-09-19T09:45:30.493Z,45.36
2018-09-19T09:47:58.925Z,45.70
2018-09-19T09:50:27.503Z,46.00
2018-09-19T09:52:55.959Z,46.32
2018-09-19T09:55:24.464Z,45.81
2018-09-19T09:57:52.955Z,45.68
2018-09-19T10:00:26.707Z,45.94
2018-09-19T10:02:55.209Z,46.37
2018-09-19T10:05:23.786Z,46.89
2018-09-19T10:07:52.493Z,47.65
2018-09-19T10:10:21.017Z,48.41
2018-09-19T10:12:49.612Z,48.69
2018-09-19T10:15:18.214Z,48.85
2018-09-19T10:17:46.816Z,49.32
2018-09-19T10:20:15.434Z,49.42
2018-09-19T10:22:43.982Z,49.00
2018-09-19T10:25:12.598Z,48.92
2018-09-19T10:27:41.231Z,49.05
2018-09-19T10:30:09.833Z,49.05
2018-09-19T10:32:38.495Z,49.29
2018-09-19T10:35:07.200Z,48.24
2018-09-19T10:37:35.741Z,47.28
2018-09-19T10:40:04.478Z,47.68
2018-09-19T10:42:33.055Z,47.51
2018-09-19T10:45:01.601Z,46.31
2018-09-19T10:47:31.485Z,46.19
2018-09-19T10:50:00.076Z,45.37
2018-09-19T10:52:28.687Z,45.27
2018-09-19T10:54:57.321Z,45.96
2018-09-19T10:57:25.899Z,46.66
2018-09-19T10:59:54.403Z,46.36
2018-09-19T11:02:22.952Z,46.63
2018-09-19T11:04:51.463Z,47.25
2018-09-19T11:07:20.028Z,47.75
2018-09-19T11:09:48.859Z,48.13
2018-09-19T11:12:17.478Z,49.22
2018-09-19T11:14:46.124Z,49.26
2018-09-19T11:17:14.745Z,49.58
2018-09-19T11:19:43.341Z,50.00
2018-09-19T11:22:11.924Z,50.80
2018-09-19T11:24:40.507Z,51.72
2018-09-19T11:27:09.864Z,51.61
2018-09-19T11:29:38.512Z,52.03
2018-09-19T11:32:07.036Z,52.67
2018-09-19T11:34:35.593Z,52.66
2018-09-19T12:16:40.371Z,42.51
2018-09-19T12:19:09.141Z,41.88
2018-09-19T12:21:37.927Z,41.38
2018-09-19T12:24:06.531Z,41.00
2018-09-19T12:26:35.496Z,40.52
2018-09-19T12:29:04.299Z,40.03
2018-09-19T12:31:33.008Z,39.63
2018-09-19T12:34:01.828Z,39.24
2018-09-19T12:36:30.627Z,38.94
2018-09-19T12:38:59.472Z,38.66
2018-09-19T12:41:28.024Z,38.34
2018-09-19T12:43:57.026Z,38.04
2018-09-19T12:46:25.854Z,37.78
2018-09-19T12:48:54.959Z,37.57
2018-09-19T12:51:23.944Z,37.36
2018-09-19T12:53:52.829Z,37.28
2018-09-19T12:56:22.350Z,37.24
2018-09-19T12:58:51.168Z,37.25
2018-09-19T13:01:20.113Z,37.32
2018-09-19T13:03:48.857Z,37.10
2018-09-19T13:06:17.799Z,37.01
2018-09-19T13:08:46.655Z,36.85
2018-09-19T13:11:15.421Z,36.78
2018-09-19T13:13:44.278Z,36.76
2018-09-19T13:16:12.985Z,36.69
2018-09-19T13:18:41.753Z,36.64
2018-09-19T13:21:10.605Z,36.57
2018-09-19T13:23:39.324Z,36.47
2018-09-19T13:26:08.111Z,36.40
2018-09-19T13:28:36.865Z,36.47
2018-09-19T13:31:05.723Z,36.48
2018-09-19T13:33:34.526Z,36.44
2018-09-19T13:36:03.256Z,36.37
2018-09-19T13:38:32.006Z,36.28
2018-09-19T13:41:00.787Z,36.17
2018-09-19T13:43:29.570Z,36.03
2018-09-19T13:45:58.356Z,35.88
2018-09-19T13:48:27.397Z,35.70
2018-09-19T13:51:06.227Z,35.67
2018-09-19T13:53:35.220Z,35.68
2018-09-19T13:56:03.904Z,35.65
2018-09-19T13:58:32.553Z,35.57
2018-09-19T14:01:01.278Z,35.48
2018-09-19T14:03:29.928Z,35.38
2018-09-19T14:05:58.769Z,35.27
2018-09-19T14:08:27.413Z,35.24
2018-09-19T14:10:55.950Z,35.26
2018-09-19T14:13:24.614Z,35.20
2018-09-19T14:15:53.376Z,35.11
2018-09-19T14:18:22.044Z,35.07
2018-09-19T14:20:50.666Z,34.94
2018-09-19T14:23:19.365Z,34.81
2018-09-19T14:25:48.068Z,34.71
2018-09-19T14:28:16.788Z,34.54
2018-09-19T14:30:45.688Z,34.35
2018-09-19T14:33:14.492Z,34.31
2018-09-19T14:35:43.352Z,34.26
2018-09-19T14:38:12.788Z,34.16
2018-09-19T14:40:41.455Z,34.07
2018-09-19T14:43:10.173Z,33.96
2018-09-19T14:45:39.179Z,33.93
2018-09-19T14:48:07.644Z,33.90
2018-09-19T14:50:36.264Z,30.72
2018-09-19T14:53:05.082Z,33.85
2018-09-19T14:55:34.621Z,33.76
2018-09-19T14:58:03.345Z,33.65
2018-09-19T15:00:32.020Z,33.57
2018-09-19T15:03:00.622Z,33.58
2018-09-19T15:05:29.601Z,33.53
2018-09-19T15:07:58.526Z,33.45
2018-09-19T15:10:27.319Z,33.43
2018-09-19T15:12:56.373Z,33.46
2018-09-19T15:15:25.140Z,33.47
2018-09-19T15:17:53.896Z,33.50
2018-09-19T15:20:22.909Z,33.48
2018-09-19T15:22:51.661Z,33.48
2018-09-19T15:25:20.269Z,33.36
2018-09-19T15:27:49.150Z,33.33
2018-09-19T15:30:18.069Z,33.21
2018-09-19T15:32:46.765Z,33.20
2018-09-19T15:35:15.446Z,33.23
2018-09-19T15:37:44.184Z,33.30
2018-09-19T15:40:12.908Z,33.25
2018-09-19T15:42:41.712Z,33.18
2018-09-19T15:45:10.566Z,33.16
2018-09-19T15:47:39.275Z,33.04
2018-09-19T15:50:08.174Z,32.97
2018-09-19T15:52:36.825Z,32.92
2018-09-19T15:55:05.581Z,32.89
2018-09-19T15:57:34.475Z,32.86
2018-09-19T16:00:03.376Z,32.82
2018-09-19T16:02:32.077Z,32.73
2018-09-19T16:05:00.686Z,32.65
2018-09-19T16:07:29.461Z,32.57
2018-09-19T16:09:58.177Z,32.49
2018-09-19T16:12:26.797Z,32.44
2018-09-19T16:14:55.443Z,32.36
2018-09-19T16:17:24.065Z,32.31
2018-09-19T16:19:52.705Z,32.25
2018-09-19T16:22:21.799Z,32.24
2018-09-19T16:24:50.520Z,32.25
2018-09-19T16:27:19.210Z,32.24
2018-09-19T16:29:48.010Z,29.23
2018-09-19T17:16:03.692Z,30.93
2018-09-19T17:18:32.355Z,30.79
2018-09-19T17:21:01.251Z,30.70
2018-09-19T17:23:30.017Z,30.59
2018-09-19T17:25:58.751Z,30.54
2018-09-19T17:28:27.241Z,30.46
2018-09-19T17:30:55.896Z,30.37
2018-09-19T17:33:24.594Z,30.32
2018-09-19T17:35:53.368Z,30.27
2018-09-19T17:38:21.984Z,30.17
2018-09-19T17:40:50.563Z,30.11
2018-09-19T17:43:19.189Z,30.05
2018-09-19T17:45:47.934Z,29.98
2018-09-19T17:48:16.516Z,29.91
2018-09-19T17:50:45.172Z,29.86
2018-09-19T17:53:13.808Z,29.80
2018-09-19T17:55:42.400Z,29.75
2018-09-19T17:58:10.990Z,29.69
2018-09-19T18:00:39.606Z,29.64
2018-09-19T18:03:08.258Z,29.57
2018-09-19T18:05:36.829Z,29.50
2018-09-19T18:08:05.414Z,29.42
2018-09-19T18:10:34.036Z,29.37
2018-09-19T18:13:02.588Z,28.31
2018-09-19T18:15:31.141Z,29.27
2018-09-19T18:17:59.668Z,29.21
2018-09-19T18:20:28.448Z,29.16
2018-09-19T18:22:56.967Z,29.11
2018-09-19T18:25:25.629Z,29.05
2018-09-19T18:27:54.226Z,28.99
2018-09-19T18:30:22.737Z,28.94
2018-09-19T18:32:51.234Z,28.87
2018-09-19T18:35:19.753Z,28.83
2018-09-19T18:37:48.328Z,28.78
2018-09-19T18:40:17.409Z,28.72
2018-09-19T18:42:46.025Z,28.66
2018-09-19T18:45:14.618Z,28.62
2018-09-19T18:47:43.367Z,28.51
2018-09-19T18:50:13.346Z,28.46
2018-09-19T18:52:41.852Z,28.37
2018-09-19T18:55:10.380Z,28.31
2018-09-19T18:57:38.906Z,28.24
2018-09-19T19:00:07.473Z,28.17
2018-09-19T19:02:35.943Z,28.12
2018-09-19T19:05:04.461Z,28.07
2018-09-19T19:07:33.022Z,28.00
2018-09-19T19:10:01.622Z,27.95
2018-09-19T19:12:30.073Z,27.86
2018-09-19T19:14:58.509Z,27.81
2018-09-19T19:17:27.069Z,27.75
2018-09-19T19:19:55.543Z,27.69
2018-09-19T19:22:24.065Z,27.64
2018-09-19T19:24:52.556Z,27.58
2018-09-19T19:27:20.986Z,27.54
2018-09-19T19:29:49.478Z,27.49
2018-09-19T19:32:17.980Z,27.46
2018-09-19T19:34:46.450Z,27.40
2018-09-19T19:37:14.936Z,27.34
2018-09-19T19:39:43.411Z,27.31
2018-09-19T19:42:11.934Z,27.25
2018-09-19T19:44:40.501Z,27.22
2018-09-19T19:47:09.107Z,27.17
2018-09-19T19:49:37.634Z,27.15
2018-09-19T19:52:06.197Z,27.10
2018-09-19T19:54:34.748Z,27.07
2018-09-19T19:57:03.316Z,27.03
2018-09-19T19:59:31.969Z,26.99
2018-09-19T20:02:00.673Z,26.95
2018-09-19T20:04:29.465Z,26.91
2018-09-19T20:06:58.086Z,26.86
2018-09-19T20:09:26.661Z,26.82
2018-09-19T20:11:55.317Z,26.79
2018-09-19T20:14:24.079Z,26.74
2018-09-19T20:16:52.803Z,26.69
2018-09-19T20:19:21.437Z,26.66
2018-09-19T20:21:50.221Z,26.61
2018-09-19T20:24:18.958Z,26.57
2018-09-19T20:26:47.780Z,26.54
2018-09-19T20:29:16.444Z,26.50
2018-09-19T20:31:45.204Z,26.47
2018-09-19T20:34:13.722Z,26.44
2018-09-19T20:36:42.302Z,26.41
2018-09-19T20:39:11.566Z,26.37
2018-09-19T20:41:40.154Z,26.33
2018-09-19T20:44:08.852Z,26.28
2018-09-19T20:46:37.500Z,26.22
2018-09-19T20:49:06.101Z,26.20
2018-09-19T20:51:34.691Z,26.14
2018-09-19T20:54:03.348Z,26.10
2018-09-19T20:56:32.030Z,26.05
2018-09-19T20:59:00.661Z,26.01
2018-09-19T21:01:29.397Z,25.94
2018-09-19T21:03:57.871Z,25.90
2018-09-19T21:06:26.503Z,25.85
2018-09-19T21:08:55.130Z,25.80
2018-09-19T21:11:23.780Z,25.75
2018-09-19T21:13:52.427Z,25.70
2018-09-19T21:16:21.074Z,25.65
2018-09-19T21:18:49.789Z,25.60
2018-09-19T21:21:18.422Z,25.52
2018-09-19T21:23:47.008Z,25.47
2018-09-19T21:26:15.772Z,25.41
2018-09-19T21:28:44.404Z,25.36
2018-09-19T21:31:13.027Z,25.31
2018-09-19T21:33:41.646Z,25.26
2018-09-19T21:36:10.276Z,25.23
2018-09-19T21:38:38.896Z,25.17
2018-09-19T21:41:07.712Z,25.12
2018-09-19T21:43:36.527Z,25.07
2018-09-19T21:46:05.205Z,25.03
2018-09-19T21:48:33.898Z,25.00
2018-09-19T21:51:02.567Z,24.94
2018-09-19T21:53:31.257Z,24.90
2018-09-19T21:56:00.061Z,24.86
2018-09-19T21:58:28.770Z,24.82
2018-09-19T22:01:02.713Z,24.79
2018-09-19T22:03:31.404Z,24.75
2018-09-19T22:06:00.059Z,24.71
2018-09-19T22:08:28.782Z,24.69
2018-09-19T22:10:57.342Z,24.66
2018-09-19T22:13:25.950Z,24.62
2018-09-19T22:15:54.608Z,24.60
2018-09-19T22:18:23.443Z,24.57
2018-09-19T22:20:52.147Z,24.51
2018-09-19T22:23:20.770Z,24.48
2018-09-19T22:25:49.293Z,24.44
2018-09-19T22:28:17.923Z,24.40
2018-09-19T22:30:46.644Z,24.36
2018-09-19T22:33:15.234Z,24.32
2018-09-19T22:35:43.949Z,24.29
2018-09-19T22:38:12.658Z,24.24
2018-09-19T22:40:41.278Z,24.18
2018-09-19T22:43:09.943Z,24.15
2018-09-19T22:45:38.556Z,24.11
2018-09-19T22:48:07.242Z,24.08
2018-09-19T22:50:35.808Z,24.06
2018-09-19T22:53:04.462Z,24.04
2018-09-19T22:55:33.190Z,24.01
2018-09-19T22:58:01.772Z,23.96
2018-09-19T23:00:30.371Z,23.94
2018-09-19T23:02:59.014Z,23.89
2018-09-19T23:05:27.675Z,23.86
2018-09-19T23:07:56.406Z,23.83
2018-09-19T23:10:25.036Z,23.81
2018-09-19T23:12:53.664Z,23.78
2018-09-19T23:15:22.238Z,23.77
2018-09-19T23:17:50.786Z,23.72
2018-09-19T23:20:19.371Z,23.69
2018-09-19T23:22:47.985Z,23.66
2018-09-19T23:25:16.602Z,23.61
2018-09-19T23:27:45.208Z,23.58
2018-09-19T23:30:13.815Z,23.54
2018-09-19T23:32:42.433Z,23.53
2018-09-19T23:35:11.218Z,23.49
2018-09-19T23:37:39.805Z,23.47
2018-09-19T23:40:08.527Z,23.43
2018-09-19T23:42:37.089Z,23.40
2018-09-19T23:45:06.323Z,23.37
2018-09-19T23:47:34.994Z,23.32
2018-09-19T23:50:03.633Z,23.28
2018-09-19T23:52:32.263Z,23.25
2018-09-19T23:55:00.871Z,23.21
2018-09-19T23:57:29.496Z,23.19
2018-09-19T23:59:58.089Z,23.15
